Time;durP1;ratioP1;P1;durP2;ratioP2;P2;SDS_P1;SDS_P2;PMS_P1;PMS_P2;Temp;Humidity;BMP_temperature;BMP_pressure;BME280_temperature;BME280_humidity;BME280_pressure;Samples;Min_cycle;Max_cycle;Signal;HPM_P1;HPM_P2
2023/08/07 00:00:33;;;;;;;2.38;1.35;;;;;;;10.11;100.00;95733.84;5029355;28;24455;-75
2023/08/07 00:03:00;;;;;;;2.28;1.13;;;;;;;10.09;100.00;95729.69;5029100;28;24447;-75
2023/08/07 00:05:28;;;;;;;3.35;1.30;;;;;;;10.11;100.00;95738.19;5029276;28;24450;-75
2023/08/07 00:07:54;;;;;;;3.50;1.52;;;;;;;10.10;100.00;95732.19;5029381;28;24448;-75
2023/08/07 00:10:21;;;;;;;3.40;1.38;;;;;;;10.02;100.00;95741.34;5029723;28;20777;-75
2023/08/07 00:12:47;;;;;;;5.40;1.40;;;;;;;9.99;100.00;95738.94;5028983;28;24522;-75
2023/08/07 00:15:14;;;;;;;3.40;1.48;;;;;;;10.02;100.00;95731.00;5029170;28;24439;-75
2023/08/07 00:17:40;;;;;;;12.68;1.58;;;;;;;10.00;100.00;95749.19;5029195;28;24521;-75
2023/08/07 00:20:08;;;;;;;4.45;1.38;;;;;;;10.08;100.00;95739.19;5029578;28;24446;-75
2023/08/07 00:22:36;;;;;;;4.90;1.42;;;;;;;10.16;100.00;95741.34;5029032;28;24436;-75
2023/08/07 00:25:03;;;;;;;4.10;1.40;;;;;;;10.17;100.00;95738.63;5029328;28;20813;-75
2023/08/07 00:27:29;;;;;;;3.92;1.50;;;;;;;10.16;100.00;95736.16;5029421;28;20768;-75
2023/08/07 00:29:56;;;;;;;3.63;1.33;;;;;;;10.08;100.00;95738.38;5029721;28;24466;-75
2023/08/07 00:32:22;;;;;;;4.17;1.40;;;;;;;10.14;100.00;95738.00;5029808;28;20793;-75
2023/08/07 00:34:49;;;;;;;2.90;1.40;;;;;;;10.21;100.00;95741.03;5029206;28;25084;-75
2023/08/07 00:37:15;;;;;;;3.25;1.38;;;;;;;10.09;100.00;95740.03;5029933;28;24819;-75
2023/08/07 00:39:43;;;;;;;4.10;1.60;;;;;;;10.13;100.00;95738.94;5029709;28;24776;-75
2023/08/07 00:42:09;;;;;;;3.60;1.60;;;;;;;10.07;100.00;95744.47;5030107;28;21347;-75
2023/08/07 00:44:36;;;;;;;3.97;1.40;;;;;;;10.08;100.00;95756.47;5028943;28;24435;-76
2023/08/07 00:47:03;;;;;;;3.60;1.60;;;;;;;10.13;100.00;95747.53;5028809;28;24883;-75
2023/08/07 00:49:29;;;;;;;5.32;1.48;;;;;;;10.19;100.00;95751.47;5032197;28;24803;-75
2023/08/07 00:51:56;;;;;;;3.72;1.38;;;;;;;10.19;100.00;95756.66;5032703;28;24439;-75
2023/08/07 00:54:23;;;;;;;3.08;1.30;;;;;;;10.15;100.00;95756.00;5032198;28;24452;-75
2023/08/07 00:56:51;;;;;;;3.35;1.42;;;;;;;10.17;100.00;95761.09;5032184;28;24439;-75
2023/08/07 00:59:18;;;;;;;3.92;1.42;;;;;;;10.12;100.00;95760.53;5032654;28;24507;-75
2023/08/07 01:01:44;;;;;;;2.65;1.40;;;;;;;10.18;100.00;95762.75;5031974;28;24435;-75
2023/08/07 01:04:11;;;;;;;2.92;1.40;;;;;;;10.15;100.00;95760.34;5031833;28;24992;-75
2023/08/07 01:06:37;;;;;;;1.92;1.42;;;;;;;10.22;100.00;95760.81;5032636;28;24527;-75
2023/08/07 01:09:04;;;;;;;7.47;1.50;;;;;;;10.13;100.00;95762.22;5032420;28;24447;-75
2023/08/07 01:11:36;;;;;;;2.85;1.33;;;;;;;10.14;100.00;95762.13;5032431;28;24985;-75
2023/08/07 01:14:11;;;;;;;4.28;1.50;;;;;;;10.19;100.00;95764.41;5031646;28;25016;-75
2023/08/07 01:16:46;;;;;;;2.65;1.40;;;;;;;10.22;100.00;95769.41;5031903;28;20662;-75
2023/08/07 01:19:23;;;;;;;5.22;1.98;;;;;;;10.28;100.00;95766.47;5032411;28;24475;-75
2023/08/07 01:21:51;;;;;;;3.85;1.40;;;;;;;10.29;100.00;95775.06;5027461;28;24578;-75
2023/08/07 01:24:17;;;;;;;2.78;1.23;;;;;;;10.26;100.00;95775.25;5025450;28;25009;-75
2023/08/07 01:26:46;;;;;;;5.43;1.42;;;;;;;10.22;100.00;95781.53;5031971;28;24451;-75
2023/08/07 01:29:17;;;;;;;3.97;1.45;;;;;;;10.14;100.00;95769.06;5017082;28;24497;-75
2023/08/07 01:31:47;;;;;;;3.85;1.40;;;;;;;10.17;100.00;95774.88;5031651;28;25024;-75
2023/08/07 01:34:16;;;;;;;3.92;1.63;;;;;;;10.27;100.00;95774.31;5031448;28;24451;-75
2023/08/07 01:36:44;;;;;;;4.80;1.47;;;;;;;10.28;100.00;95773.41;5031966;28;24439;-75
2023/08/07 01:39:12;;;;;;;4.00;1.60;;;;;;;10.21;100.00;95774.69;5015907;28;20788;-75
2023/08/07 01:41:41;;;;;;;2.53;1.38;;;;;;;10.19;100.00;95769.59;5031784;28;24443;-75
2023/08/07 01:44:08;;;;;;;3.42;1.60;;;;;;;10.27;100.00;95769.16;5031405;28;24435;-75
2023/08/07 01:46:34;;;;;;;3.92;1.67;;;;;;;10.25;100.00;95771.00;5031935;28;24444;-75
2023/08/07 01:49:01;;;;;;;3.85;1.45;;;;;;;10.23;100.00;95778.00;5031133;28;24440;-75
2023/08/07 01:51:27;;;;;;;3.70;1.80;;;;;;;10.16;100.00;95783.56;5031652;28;24511;-75
2023/08/07 01:53:54;;;;;;;2.80;1.60;;;;;;;10.21;100.00;95785.03;5031593;28;24467;-75
2023/08/07 01:56:22;;;;;;;2.28;1.33;;;;;;;10.14;100.00;95782.81;5031307;28;24440;-75
2023/08/07 01:58:48;;;;;;;3.53;1.30;;;;;;;10.13;100.00;95786.34;5031264;28;24474;-75
2023/08/07 02:01:14;;;;;;;3.10;1.57;;;;;;;10.29;100.00;95783.66;5031484;28;24468;-75
2023/08/07 02:03:41;;;;;;;4.70;1.73;;;;;;;10.27;100.00;95782.94;5031139;28;24431;-75
2023/08/07 02:06:07;;;;;;;2.85;1.30;;;;;;;10.34;100.00;95791.97;5031232;28;24428;-75
2023/08/07 02:08:34;;;;;;;5.10;1.73;;;;;;;10.20;100.00;95791.97;5031326;28;24467;-75
2023/08/07 02:11:02;;;;;;;3.65;1.48;;;;;;;10.21;100.00;95780.69;5031421;28;20773;-75
2023/08/07 02:13:30;;;;;;;5.80;1.73;;;;;;;10.17;100.00;95800.75;5030819;28;24808;-75
2023/08/07 02:15:56;;;;;;;5.63;1.67;;;;;;;10.25;100.00;95791.69;5031424;28;24459;-75
2023/08/07 02:18:23;;;;;;;3.90;1.55;;;;;;;10.25;100.00;95797.72;5030920;28;24466;-75
2023/08/07 02:20:49;;;;;;;4.75;1.50;;;;;;;10.26;100.00;95804.56;5030614;28;24503;-75
2023/08/07 02:23:16;;;;;;;4.60;1.70;;;;;;;10.24;100.00;95808.16;5030582;28;24823;-75
2023/08/07 02:25:42;;;;;;;2.85;1.65;;;;;;;10.18;100.00;95796.41;5030965;28;24432;-75
2023/08/07 02:28:09;;;;;;;3.47;1.63;;;;;;;10.14;100.00;95800.94;5030871;28;24463;-75
2023/08/07 02:30:36;;;;;;;3.35;1.65;;;;;;;10.16;100.00;95808.63;5030779;28;24439;-75
2023/08/07 02:33:03;;;;;;;4.05;1.70;;;;;;;10.11;100.00;95808.88;5029920;28;24447;-75
2023/08/07 02:35:30;;;;;;;5.90;1.73;;;;;;;10.14;100.00;95803.53;5030338;28;24502;-75
2023/08/07 02:37:56;;;;;;;5.57;1.80;;;;;;;10.23;100.00;95803.88;5030570;28;24436;-75
2023/08/07 02:40:22;;;;;;;4.82;1.65;;;;;;;10.17;100.00;95805.09;5030589;28;24439;-75
2023/08/07 02:42:48;;;;;;;2.80;1.60;;;;;;;10.08;100.00;95798.69;5030602;28;24479;-75
2023/08/07 02:45:15;;;;;;;3.40;1.73;;;;;;;10.10;100.00;95799.47;5030348;28;20772;-75
2023/08/07 02:47:42;;;;;;;4.03;1.90;;;;;;;10.06;100.00;95799.75;5030404;28;20773;-75
2023/08/07 02:50:09;;;;;;;4.67;1.90;;;;;;;10.08;100.00;95796.13;5030297;28;24463;-75
2023/08/07 02:52:36;;;;;;;5.43;1.83;;;;;;;10.03;100.00;95792.16;5030538;28;20785;-75
2023/08/07 02:55:03;;;;;;;6.10;1.90;;;;;;;10.07;100.00;95789.28;5029815;28;24447;-75
2023/08/07 02:57:29;;;;;;;6.10;2.10;;;;;;;10.04;100.00;95789.47;5018729;28;24573;-75
2023/08/07 02:59:55;;;;;;;4.72;1.70;;;;;;;9.92;100.00;95792.81;5030088;28;24803;-75
2023/08/07 03:02:22;;;;;;;3.65;1.77;;;;;;;9.96;100.00;95796.88;5030135;28;25025;-75
2023/08/07 03:04:50;;;;;;;4.63;2.20;;;;;;;10.05;100.00;95798.91;5029979;28;24769;-75
2023/08/07 03:07:16;;;;;;;5.85;1.80;;;;;;;10.06;100.00;95787.63;5030149;28;24795;-75
2023/08/07 03:09:46;;;;;;;4.22;1.80;;;;;;;10.00;100.00;95794.94;5030202;28;25001;-75
2023/08/07 03:12:12;;;;;;;6.55;1.90;;;;;;;10.05;100.00;95792.88;5029685;28;24530;-75
2023/08/07 03:14:39;;;;;;;11.02;1.92;;;;;;;10.06;100.00;95787.63;5029872;28;24455;-75
2023/08/07 03:17:06;;;;;;;5.75;1.98;;;;;;;9.96;100.00;95799.44;5029888;28;24436;-75
2023/08/07 03:19:32;;;;;;;4.80;2.00;;;;;;;10.00;100.00;95792.34;5029834;28;20808;-75
2023/08/07 03:22:00;;;;;;;6.50;1.50;;;;;;;9.98;100.00;95795.03;5028804;28;24451;-75
2023/08/07 03:24:27;;;;;;;8.98;1.90;;;;;;;10.06;100.00;95800.56;5029758;28;21141;-75
2023/08/07 03:26:53;;;;;;;4.20;1.73;;;;;;;10.02;100.00;95799.09;5029429;28;24436;-75
2023/08/07 03:29:19;;;;;;;9.05;1.92;;;;;;;10.06;100.00;95794.56;5029318;28;20781;-75
2023/08/07 03:31:46;;;;;;;6.05;2.00;;;;;;;10.09;100.00;95794.38;5029749;28;24462;-74
2023/08/07 03:34:12;;;;;;;5.18;1.95;;;;;;;10.02;100.00;95795.69;5029257;28;25021;-75
2023/08/07 03:36:39;;;;;;;6.10;2.17;;;;;;;10.01;100.00;95805.19;5029315;28;24970;-75
2023/08/07 03:39:07;;;;;;;3.27;1.57;;;;;;;9.94;100.00;95799.56;5029358;28;24812;-75
2023/08/07 03:41:34;;;;;;;4.18;1.50;;;;;;;9.96;100.00;95807.22;5029720;28;24439;-75
2023/08/07 03:44:00;;;;;;;3.53;1.67;;;;;;;10.00;100.00;95807.88;5029175;28;24458;-75
2023/08/07 03:46:27;;;;;;;5.07;1.80;;;;;;;9.99;100.00;95799.28;5029566;28;24977;-75
2023/08/07 03:48:53;;;;;;;4.57;1.92;;;;;;;10.07;100.00;95806.56;5029401;28;25028;-75
2023/08/07 03:51:19;;;;;;;3.17;1.77;;;;;;;10.06;100.00;95810.09;5030025;28;20799;-75
2023/08/07 03:53:46;;;;;;;4.15;1.92;;;;;;;10.14;100.00;95800.09;5029338;28;24432;-75
2023/08/07 03:56:14;;;;;;;3.70;1.70;;;;;;;10.11;100.00;95806.28;5029330;28;25005;-75
2023/08/07 03:58:40;;;;;;;4.18;2.03;;;;;;;10.05;100.00;95805.81;5028834;28;25017;-75
2023/08/07 04:01:07;;;;;;;6.90;1.73;;;;;;;9.99;100.00;95809.63;5028893;28;24978;-75
2023/08/07 04:03:33;;;;;;;5.07;1.90;;;;;;;9.92;100.00;95808.31;5028934;28;24435;-75
2023/08/07 04:06:00;;;;;;;3.10;1.40;;;;;;;9.88;100.00;95812.84;5029362;28;24459;-75
2023/08/07 04:08:26;;;;;;;7.03;2.00;;;;;;;9.94;100.00;95811.66;5028959;28;24471;-75
2023/08/07 04:11:01;;;;;;;4.55;1.73;;;;;;;9.92;100.00;95810.91;5029275;28;25032;-75
2023/08/07 04:13:29;;;;;;;3.13;1.55;;;;;;;9.97;100.00;95818.38;5029666;28;20769;-75
2023/08/07 04:15:56;;;;;;;4.03;1.60;;;;;;;9.98;100.00;95814.91;5028591;28;24447;-75
2023/08/07 04:18:22;;;;;;;3.93;1.90;;;;;;;9.91;100.00;95815.25;5029077;28;24563;-75
2023/08/07 04:20:50;;;;;;;3.37;1.60;;;;;;;9.95;100.00;95815.91;5029277;28;24884;-75
2023/08/07 04:23:16;;;;;;;3.00;1.60;;;;;;;9.94;100.00;95825.44;5023222;28;21323;-76
2023/08/07 04:25:43;;;;;;;4.18;1.60;;;;;;;9.93;100.00;95823.75;5032589;28;24814;-75
2023/08/07 04:28:09;;;;;;;2.20;1.30;;;;;;;10.01;100.00;95814.69;5032350;28;24459;-75
2023/08/07 04:30:37;;;;;;;3.58;1.60;;;;;;;9.96;100.00;95824.50;5030697;28;20776;-76
2023/08/07 04:33:04;;;;;;;5.13;1.77;;;;;;;9.94;100.00;95825.44;5021116;28;24440;-75
2023/08/07 04:35:31;;;;;;;3.38;1.60;;;;;;;10.02;100.00;95822.38;5032434;28;24905;-75
2023/08/07 04:37:57;;;;;;;3.47;1.70;;;;;;;10.03;100.00;95830.97;5027794;28;24990;-78
2023/08/07 04:40:24;;;;;;;3.80;1.52;;;;;;;10.02;100.00;95831.91;5026244;28;24433;-78
2023/08/07 04:42:50;;;;;;;3.80;1.80;;;;;;;10.16;100.00;95835.34;5028110;28;25009;-78
2023/08/07 04:45:17;;;;;;;4.25;1.45;;;;;;;10.16;100.00;95831.91;5028423;28;24437;-77
2023/08/07 04:47:45;;;;;;;4.03;1.80;;;;;;;10.22;100.00;95841.06;5030812;28;24432;-77
2023/08/07 04:50:12;;;;;;;4.15;1.55;;;;;;;10.20;100.00;95830.81;5031783;28;24654;-75
2023/08/07 04:52:38;;;;;;;7.20;1.70;;;;;;;10.26;100.00;95829.63;5031837;28;24458;-75
2023/08/07 04:55:06;;;;;;;4.50;1.70;;;;;;;10.26;100.00;95833.03;5031704;28;24458;-75
2023/08/07 04:57:32;;;;;;;2.10;1.40;;;;;;;10.22;100.00;95836.69;5032550;28;24509;-75
2023/08/07 04:59:59;;;;;;;4.07;1.75;;;;;;;10.22;100.00;95839.28;5032101;28;24442;-75
2023/08/07 05:02:25;;;;;;;3.97;1.52;;;;;;;10.37;100.00;95833.22;5032200;28;24443;-75
2023/08/07 05:04:53;;;;;;;4.70;1.88;;;;;;;10.31;100.00;95836.19;5032041;28;24483;-75
2023/08/07 05:07:19;;;;;;;3.63;1.88;;;;;;;10.32;100.00;95834.44;5031924;28;24435;-76
2023/08/07 05:09:46;;;;;;;3.90;1.48;;;;;;;10.37;100.00;95837.56;5032207;28;24444;-75
2023/08/07 05:12:12;;;;;;;3.65;1.70;;;;;;;10.37;100.00;95835.81;5032004;28;24439;-76
2023/08/07 05:14:39;;;;;;;3.15;1.58;;;;;;;10.40;100.00;95845.97;5031642;28;24459;-75
2023/08/07 05:17:05;;;;;;;6.30;1.70;;;;;;;10.45;100.00;95837.91;5032106;28;24443;-74
2023/08/07 05:19:32;;;;;;;2.78;1.38;;;;;;;10.60;100.00;95839.56;5031849;28;24982;-75
2023/08/07 05:22:00;;;;;;;3.70;1.93;;;;;;;10.53;100.00;95829.69;5031175;28;24799;-75
2023/08/07 05:24:26;;;;;;;2.55;1.60;;;;;;;10.53;100.00;95837.44;5031872;28;24542;-75
2023/08/07 05:26:52;;;;;;;6.50;1.83;;;;;;;10.56;100.00;95847.63;5031848;28;24436;-76
2023/08/07 05:29:19;;;;;;;3.33;1.58;;;;;;;10.54;100.00;95849.50;5031645;28;24447;-75
2023/08/07 05:31:45;;;;;;;3.17;1.70;;;;;;;10.61;100.00;95850.78;5031560;28;24822;-76
2023/08/07 05:34:12;;;;;;;3.10;1.60;;;;;;;10.62;100.00;95847.25;5027123;28;24443;-74
2023/08/07 05:36:39;;;;;;;3.00;1.63;;;;;;;10.72;100.00;95856.13;5031510;28;24458;-75
2023/08/07 05:39:07;;;;;;;3.65;1.60;;;;;;;10.77;100.00;95850.66;5024997;28;25002;-75
2023/08/07 05:41:33;;;;;;;4.63;1.90;;;;;;;10.69;100.00;95858.06;5026807;28;24874;-76
2023/08/07 05:44:00;;;;;;;4.57;2.00;;;;;;;10.81;100.00;95852.13;5022598;28;24779;-76
2023/08/07 05:46:26;;;;;;;3.45;1.80;;;;;;;10.80;100.00;95856.47;5024210;28;24772;-76
2023/08/07 05:48:53;;;;;;;3.97;1.80;;;;;;;10.88;100.00;95854.25;5018854;28;25014;-76
2023/08/07 05:51:20;;;;;;;3.67;1.63;;;;;;;10.92;100.00;95860.06;5022296;28;24986;-76
2023/08/07 05:53:46;;;;;;;8.35;1.67;;;;;;;10.99;100.00;95863.09;5031095;28;24792;-75
2023/08/07 05:56:14;;;;;;;3.97;1.60;;;;;;;10.99;100.00;95865.69;5031058;28;24455;-76
2023/08/07 05:58:41;;;;;;;3.70;1.90;;;;;;;11.01;100.00;95869.00;5030137;28;24474;-75
2023/08/07 06:01:07;;;;;;;5.30;1.63;;;;;;;10.97;100.00;95870.13;5030502;28;24436;-75
2023/08/07 06:03:34;;;;;;;5.68;2.92;;;;;;;11.03;100.00;95878.34;5030134;28;24439;-75
2023/08/07 06:06:00;;;;;;;3.38;1.50;;;;;;;11.05;100.00;95867.88;5027795;28;24436;-75
2023/08/07 06:08:27;;;;;;;3.35;1.48;;;;;;;11.09;100.00;95877.97;5026522;28;25005;-75
2023/08/07 06:10:53;;;;;;;6.83;1.93;;;;;;;11.06;100.00;95879.94;5029021;28;24866;-76
2023/08/07 06:13:21;;;;;;;3.70;1.73;;;;;;;11.02;100.00;95875.88;5030055;28;24440;-76
2023/08/07 06:15:47;;;;;;;4.95;1.63;;;;;;;11.07;100.00;95877.22;5030303;28;24448;-76
2023/08/07 06:18:14;;;;;;;6.88;1.92;;;;;;;11.06;100.00;95877.34;5030179;28;24471;-76
2023/08/07 06:20:40;;;;;;;5.05;1.92;;;;;;;11.11;100.00;95881.28;5030888;28;24511;-76
2023/08/07 06:23:20;;;;;;;3.70;1.52;;;;;;;11.01;100.00;95884.56;5031837;28;24432;-77
2023/08/07 06:25:47;;;;;;;5.28;1.85;;;;;;;11.05;100.00;95886.88;5030862;28;24525;-76
2023/08/07 06:28:14;;;;;;;3.67;1.58;;;;;;;11.08;100.00;95878.88;5030379;28;24498;-76
2023/08/07 06:30:41;;;;;;;5.63;1.73;;;;;;;11.18;100.00;95892.13;5031045;28;24439;-76
2023/08/07 06:33:08;;;;;;;5.30;1.67;;;;;;;11.24;100.00;95890.91;5033350;28;24462;-76
2023/08/07 06:35:38;;;;;;;4.05;1.63;;;;;;;11.25;100.00;95897.75;5033450;28;24454;-76
2023/08/07 06:38:05;;;;;;;3.03;1.90;;;;;;;11.34;100.00;95891.97;5026384;28;24435;-76
2023/08/07 06:40:31;;;;;;;2.93;1.67;;;;;;;11.33;100.00;95898.09;5021866;28;24803;-76
2023/08/07 06:42:57;;;;;;;3.72;1.67;;;;;;;11.33;100.00;95895.50;5024914;28;24803;-76
2023/08/07 06:45:25;;;;;;;3.05;1.85;;;;;;;11.38;100.00;95903.81;5027173;28;24463;-76
2023/08/07 06:47:53;;;;;;;6.88;2.00;;;;;;;11.42;100.00;95912.22;5029921;28;25009;-76
2023/08/07 06:50:19;;;;;;;3.85;1.65;;;;;;;11.52;100.00;95910.72;5030237;28;25005;-76
2023/08/07 06:52:47;;;;;;;4.10;1.60;;;;;;;11.59;100.00;95910.22;5024743;28;24443;-76
2023/08/07 06:55:14;;;;;;;2.47;1.43;;;;;;;11.55;100.00;95919.13;5028905;28;24456;-75
2023/08/07 06:57:40;;;;;;;4.90;1.30;;;;;;;11.54;100.00;95912.28;5027366;28;24432;-77
2023/08/07 07:00:08;;;;;;;3.97;1.77;;;;;;;11.71;100.00;95915.53;5024993;28;24536;-77
2023/08/07 07:02:34;;;;;;;4.57;1.60;;;;;;;11.79;100.00;95906.34;5027948;28;24812;-78
2023/08/07 07:05:02;;;;;;;4.72;1.50;;;;;;;12.02;100.00;95917.00;5027082;28;24455;-78
2023/08/07 07:07:29;;;;;;;2.43;1.50;;;;;;;12.16;100.00;95914.28;5025734;28;24432;-78
2023/08/07 07:09:57;;;;;;;4.75;1.70;;;;;;;12.18;100.00;95902.06;5031554;28;25013;-77
2023/08/07 07:12:24;;;;;;;4.70;1.40;;;;;;;12.27;100.00;95904.06;5030333;28;24440;-78
2023/08/07 07:14:50;;;;;;;2.70;1.40;;;;;;;12.40;100.00;95908.41;5030735;28;24454;-78
2023/08/07 07:17:17;;;;;;;6.25;1.75;;;;;;;12.54;100.00;95911.72;5033347;28;24630;-78
2023/08/07 07:19:43;;;;;;;3.72;1.60;;;;;;;12.73;100.00;95906.09;5034425;28;24440;-78
2023/08/07 07:22:11;;;;;;;2.70;1.50;;;;;;;12.68;100.00;95913.41;5031468;28;25006;-78
2023/08/07 07:24:38;;;;;;;2.95;1.60;;;;;;;12.39;100.00;95919.75;5036439;28;24567;-78
2023/08/07 07:27:06;;;;;;;4.63;1.48;;;;;;;12.31;100.00;95925.44;5029840;28;24428;-75
2023/08/07 07:29:32;;;;;;;4.05;1.60;;;;;;;12.62;100.00;95918.19;5030150;28;24978;-76
2023/08/07 07:31:59;;;;;;;3.40;1.47;;;;;;;12.46;100.00;95926.16;5030469;28;24439;-76
2023/08/07 07:34:25;;;;;;;3.40;1.50;;;;;;;12.40;100.00;95922.22;5027264;28;24827;-77
2023/08/07 07:36:53;;;;;;;2.65;1.63;;;;;;;12.59;100.00;95932.19;5027872;28;24478;-75
2023/08/07 07:39:21;;;;;;;2.88;1.60;;;;;;;12.76;100.00;95946.66;5030289;28;24539;-75
2023/08/07 07:41:48;;;;;;;2.15;1.20;;;;;;;12.78;100.00;95935.19;5031287;28;24987;-75
2023/08/07 07:44:14;;;;;;;2.88;1.40;;;;;;;12.98;100.00;95941.63;5031663;28;24431;-77
2023/08/07 07:46:40;;;;;;;4.30;1.65;;;;;;;13.02;100.00;95944.84;5030081;28;24439;-75
2023/08/07 07:49:07;;;;;;;1.90;1.20;;;;;;;13.03;100.00;95936.09;5026637;28;24458;-75
2023/08/07 07:51:35;;;;;;;4.07;1.33;;;;;;;12.98;100.00;95938.19;5030366;28;24507;-75
2023/08/07 07:54:01;;;;;;;3.92;1.30;;;;;;;12.72;100.00;95937.38;5029321;28;24440;-75
2023/08/07 07:56:29;;;;;;;3.30;1.40;;;;;;;12.78;100.00;95948.19;5027036;28;24452;-76
2023/08/07 08:01:41;;;;;;;3.00;1.45;;;;;;;13.16;100.00;95949.06;5037710;28;24574;-76
2023/08/07 08:04:07;;;;;;;2.80;1.00;;;;;;;13.35;100.00;95953.81;5030024;28;24498;-76
2023/08/07 08:06:34;;;;;;;3.17;1.60;;;;;;;13.53;100.00;95965.53;5032691;28;24468;-77
2023/08/07 08:09:04;;;;;;;1.70;1.25;;;;;;;13.61;100.00;95955.44;5032061;28;24792;-77
2023/08/07 08:11:32;;;;;;;2.58;1.20;;;;;;;13.89;100.00;95958.63;5040018;28;24443;-76
2023/08/07 08:13:58;;;;;;;2.03;1.40;;;;;;;13.83;100.00;95959.91;5034942;28;24428;-75
2023/08/07 08:16:25;;;;;;;7.40;1.23;;;;;;;13.55;100.00;95969.69;5030593;28;24464;-75
2023/08/07 08:18:52;;;;;;;2.15;1.25;;;;;;;13.52;100.00;95969.06;5028732;28;24446;-75
2023/08/07 08:21:18;;;;;;;2.60;1.23;;;;;;;13.82;100.00;95963.44;5035143;28;24446;-75
2023/08/07 08:23:45;;;;;;;2.40;1.40;;;;;;;13.96;100.00;95963.25;5036378;28;24458;-75
2023/08/07 08:26:11;;;;;;;1.67;1.10;;;;;;;14.01;100.00;95965.53;5036136;28;24443;-79
2023/08/07 08:28:39;;;;;;;3.47;1.17;;;;;;;14.05;100.00;95964.34;5038808;28;24447;-77
2023/08/07 08:31:06;;;;;;;2.97;1.25;;;;;;;13.99;100.00;95960.44;5040669;28;24566;-77
2023/08/07 08:33:32;;;;;;;1.70;1.10;;;;;;;14.04;100.00;95967.91;5041013;28;24498;-78
2023/08/07 08:35:59;;;;;;;2.08;1.00;;;;;;;14.32;100.00;95968.50;5042967;28;24911;-79
2023/08/07 08:38:29;;;;;;;1.77;1.10;;;;;;;14.23;100.00;95957.78;5042618;28;24994;-79
2023/08/07 08:40:55;;;;;;;3.45;1.08;;;;;;;14.14;100.00;95963.69;5032315;28;24478;-76
2023/08/07 08:43:22;;;;;;;1.20;0.93;;;;;;;13.87;100.00;95990.00;5032064;28;24440;-75
2023/08/07 08:45:50;;;;;;;1.33;0.95;;;;;;;13.95;100.00;95966.00;5032236;28;24439;-75
2023/08/07 08:48:23;;;;;;;2.30;0.80;;;;;;;14.01;100.00;95971.56;5031654;28;25010;-75
2023/08/07 08:50:51;;;;;;;2.47;1.30;;;;;;;13.94;100.00;95977.31;5032343;28;24446;-75
2023/08/07 08:53:18;;;;;;;3.58;1.20;;;;;;;13.96;100.00;95986.69;5031022;28;25012;-76
2023/08/07 08:55:47;;;;;;;3.00;1.30;;;;;;;14.10;100.00;95984.88;5032084;28;24455;-76
2023/08/07 08:58:14;;;;;;;3.60;1.10;;;;;;;14.02;100.00;95982.84;5032639;28;24462;-76
2023/08/07 09:00:42;;;;;;;2.30;1.38;;;;;;;14.10;100.00;95982.28;5024311;28;24498;-76
2023/08/07 09:03:10;;;;;;;3.80;0.95;;;;;;;14.04;100.00;95980.94;5032512;28;24435;-76
2023/08/07 09:05:38;;;;;;;2.22;1.00;;;;;;;14.14;100.00;95984.53;5032752;28;25018;-76
2023/08/07 09:08:06;;;;;;;1.55;0.93;;;;;;;14.49;100.00;95968.03;5031158;28;24507;-76
2023/08/07 09:10:33;;;;;;;3.35;1.10;;;;;;;14.47;100.00;95960.34;5031993;28;24832;-76
2023/08/07 09:13:03;;;;;;;3.10;1.20;;;;;;;14.32;100.00;95968.50;5032867;28;24443;-76
2023/08/07 09:15:32;;;;;;;1.90;0.90;;;;;;;14.18;100.00;95975.53;5033439;28;24459;-76
2023/08/07 09:17:59;;;;;;;1.90;1.33;;;;;;;14.29;100.00;95975.56;5035257;28;24443;-76
2023/08/07 09:20:28;;;;;;;2.35;1.08;;;;;;;14.19;100.00;95966.78;5034192;28;24436;-76
2023/08/07 09:22:54;;;;;;;3.40;1.15;;;;;;;14.84;100.00;95985.44;5032551;28;24979;-75
2023/08/07 09:25:28;;;;;;;2.92;1.15;;;;;;;14.65;100.00;95973.81;5034932;28;24431;-76
2023/08/07 09:27:56;;;;;;;2.17;1.05;;;;;;;14.45;100.00;95983.06;5033692;28;24462;-76
2023/08/07 09:30:27;;;;;;;3.67;1.40;;;;;;;14.23;100.00;95993.44;5032585;28;24463;-75
2023/08/07 09:32:53;;;;;;;5.20;1.23;;;;;;;14.15;100.00;95983.56;5032207;28;24438;-76
2023/08/07 09:35:22;;;;;;;3.85;1.23;;;;;;;14.15;100.00;95985.34;5032216;28;24436;-76
2023/08/07 09:37:50;;;;;;;3.63;1.67;;;;;;;14.21;100.00;95992.72;5031746;28;24452;-75
2023/08/07 09:40:16;;;;;;;6.60;1.40;;;;;;;14.51;100.00;96007.91;5033522;28;24427;-76
2023/08/07 09:42:43;;;;;;;3.78;1.50;;;;;;;14.11;100.00;96002.16;5034767;28;24436;-75
2023/08/07 09:45:23;;;;;;;1.90;1.15;;;;;;;14.03;100.00;96015.75;5029461;28;24444;-74
2023/08/07 09:48:00;;;;;;;2.60;1.38;;;;;;;14.18;100.00;96003.38;5033291;28;24438;-75
2023/08/07 09:50:27;;;;;;;2.40;1.38;;;;;;;14.45;100.00;96005.69;5033299;28;24796;-76
2023/08/07 09:52:56;;;;;;;3.03;1.42;;;;;;;14.68;100.00;96007.47;5033087;28;24423;-75
2023/08/07 09:55:23;;;;;;;2.42;1.30;;;;;;;15.17;100.00;95998.50;5034014;28;24985;-76
2023/08/07 09:57:50;;;;;;;2.20;1.15;;;;;;;15.51;100.00;96008.91;5032950;28;24486;-76
2023/08/07 10:00:19;;;;;;;1.75;0.95;;;;;;;15.45;100.00;96010.22;5035641;28;24458;-75
2023/08/07 10:02:47;;;;;;;1.87;1.37;;;;;;;15.56;100.00;96003.31;5034494;28;24820;-75
2023/08/07 10:05:14;;;;;;;1.95;1.08;;;;;;;15.47;100.00;96007.50;5034191;28;24412;-75
2023/08/07 10:07:41;;;;;;;2.65;1.35;;;;;;;15.10;100.00;96012.97;5035703;28;24428;-75
2023/08/07 10:10:10;;;;;;;1.60;1.35;;;;;;;15.32;100.00;96008.69;5035304;28;24486;-76
2023/08/07 10:12:37;;;;;;;2.42;1.13;;;;;;;15.28;100.00;96002.03;5035707;28;24736;-76
2023/08/07 10:40:04;;;;;;;1.70;1.30;;;;;;;14.54;100.00;96036.34;5135738;27;20754;-77
2023/08/07 10:42:50;;;;;;;2.22;1.40;;;;;;;14.51;100.00;96028.75;5128224;28;24445;-77
2023/08/07 10:45:18;;;;;;;1.92;1.30;;;;;;;14.65;100.00;96025.94;5128937;27;24452;-77
2023/08/07 10:47:44;;;;;;;2.00;1.40;;;;;;;14.72;100.00;96027.16;5128302;28;24566;-78
2023/08/07 10:50:11;;;;;;;3.33;1.35;;;;;;;14.57;100.00;96028.25;5129382;28;24434;-77
2023/08/07 10:52:39;;;;;;;4.90;1.42;;;;;;;14.55;100.00;96029.34;5110031;22;25041;-81
2023/08/07 10:55:14;;;;;;;5.28;1.40;;;;;;;14.59;100.00;96030.78;5033590;28;24459;-78
2023/08/07 10:57:41;;;;;;;2.10;1.23;;;;;;;14.64;100.00;96019.03;5031721;28;24448;-78
2023/08/07 11:00:09;;;;;;;1.80;1.30;;;;;;;15.14;100.00;96027.44;5027652;28;24468;-80
2023/08/07 11:02:39;;;;;;;3.63;1.73;;;;;;;15.52;100.00;96028.00;5027502;28;24428;-76
2023/08/07 11:05:06;;;;;;;3.80;1.47;;;;;;;15.62;100.00;96024.56;5028056;28;24535;-76
2023/08/07 11:07:33;;;;;;;5.25;1.50;;;;;;;15.51;100.00;96028.97;5029496;28;24440;-77
2023/08/07 11:10:00;;;;;;;1.55;1.20;;;;;;;15.49;100.00;96029.91;5034364;28;24440;-78
2023/08/07 11:12:28;;;;;;;2.85;1.52;;;;;;;15.75;100.00;96034.88;5031853;28;24451;-77
2023/08/07 11:14:57;;;;;;;3.92;1.38;;;;;;;15.94;100.00;96031.63;5028511;28;24435;-78
2023/08/07 11:17:25;;;;;;;2.95;1.50;;;;;;;15.48;100.00;96035.25;5029072;28;24842;-78
2023/08/07 11:19:52;;;;;;;2.58;1.35;;;;;;;15.51;100.00;96023.75;5029000;28;24431;-78
2023/08/07 11:22:18;;;;;;;3.47;1.40;;;;;;;15.29;100.00;96041.06;5029060;28;25029;-78
2023/08/07 11:24:47;;;;;;;3.28;1.27;;;;;;;15.07;100.00;96036.66;5028719;28;24443;-78
2023/08/07 11:27:14;;;;;;;2.30;1.30;;;;;;;14.86;100.00;96030.47;5028504;28;24444;-78
2023/08/07 11:29:41;;;;;;;2.85;1.40;;;;;;;14.61;100.00;96031.47;5027740;28;24424;-78
2023/08/07 11:32:09;;;;;;;2.70;1.52;;;;;;;14.52;100.00;96031.22;5027813;28;24448;-78
2023/08/07 11:34:36;;;;;;;2.25;1.50;;;;;;;14.42;100.00;96039.81;5027479;28;24432;-78
2023/08/07 11:37:02;;;;;;;6.50;1.60;;;;;;;14.32;100.00;96034.44;5027940;28;24444;-77
2023/08/07 11:39:29;;;;;;;4.38;1.58;;;;;;;14.30;100.00;96033.72;5022059;28;24459;-78
2023/08/07 11:41:55;;;;;;;4.53;1.55;;;;;;;14.44;100.00;96037.94;5014459;28;24443;-80
2023/08/07 11:44:23;;;;;;;3.23;1.63;;;;;;;14.28;100.00;96031.25;5014740;28;24515;-78
2023/08/07 11:46:52;;;;;;;3.28;1.33;;;;;;;14.22;100.00;96033.47;5015380;28;24966;-79
2023/08/07 11:49:20;;;;;;;1.92;1.27;;;;;;;14.22;100.00;96029.06;5014248;28;24447;-79
2023/08/07 11:51:47;;;;;;;3.35;1.35;;;;;;;14.18;100.00;96039.84;5014086;28;24447;-79
2023/08/07 11:54:15;;;;;;;2.10;1.23;;;;;;;14.14;100.00;96049.66;5014701;28;24492;-78